Time;durP1;ratioP1;P1;durP2;ratioP2;P2;SDS_P1;SDS_P2;PMS_P1;PMS_P2;Temp;Humidity;BMP_temperature;BMP_pressure;BME280_temperature;BME280_humidity;BME280_pressure;Samples;Min_cycle;Max_cycle;Signal;HPM_P1;HPM_P2
2022/06/19 00:00:00;;;;;;;0.2;0.2;;;;;;;20.0;100.0;100610;;;;
2022/06/19 00:01:01;;;;;;;0.2;0.2;;;;;;;20.0;100.0;100610;;;;
2022/06/19 00:02:00;;;;;;;0.2;0.2;;;;;;;20.1;100.0;100600;;;;
2022/06/19 00:03:01;;;;;;;0.2;0.2;;;;;;;20.1;100.0;100600;;;;
2022/06/19 00:04:03;;;;;;;0.2;0.2;;;;;;;20.0;100.0;100590;;;;
2022/06/19 00:05:00;;;;;;;0.2;0.2;;;;;;;20.0;100.0;100590;;;;
2022/06/19 00:06:00;;;;;;;0.2;0.2;;;;;;;20.0;100.0;100590;;;;
2022/06/19 00:07:00;;;;;;;0.2;0.2;;;;;;;20.0;100.0;100590;;;;
2022/06/19 00:08:00;;;;;;;0.4;0.4;;;;;;;20.0;100.0;100590;;;;
2022/06/19 00:09:00;;;;;;;0.4;0.4;;;;;;;20.0;100.0;100590;;;;
2022/06/19 00:10:00;;;;;;;0.4;0.4;;;;;;;20.3;100.0;100590;;;;
2022/06/19 00:11:00;;;;;;;0.4;0.4;;;;;;;20.3;100.0;100590;;;;
2022/06/19 00:12:00;;;;;;;0.4;0.4;;;;;;;20.1;100.0;100590;;;;
2022/06/19 00:13:00;;;;;;;0.4;0.4;;;;;;;20.1;100.0;100590;;;;
2022/06/19 00:14:00;;;;;;;0.4;0.4;;;;;;;20.0;100.0;100600;;;;
2022/06/19 00:15:00;;;;;;;0.4;0.4;;;;;;;20.0;100.0;100600;;;;
2022/06/19 00:16:00;;;;;;;0.4;0.4;;;;;;;20.1;100.0;100590;;;;
2022/06/19 00:17:01;;;;;;;0.4;0.4;;;;;;;20.1;100.0;100590;;;;
2022/06/19 00:18:00;;;;;;;0.4;0.4;;;;;;;20.2;100.0;100590;;;;
2022/06/19 00:19:00;;;;;;;0.4;0.4;;;;;;;20.2;100.0;100590;;;;
2022/06/19 00:20:00;;;;;;;0.4;0.4;;;;;;;20.2;100.0;100590;;;;
2022/06/19 00:21:00;;;;;;;0.4;0.4;;;;;;;20.2;100.0;100590;;;;
2022/06/19 00:22:00;;;;;;;0.4;0.4;;;;;;;20.0;100.0;100590;;;;
2022/06/19 00:23:00;;;;;;;0.4;0.4;;;;;;;20.0;100.0;100590;;;;
2022/06/19 00:24:00;;;;;;;0.4;0.4;;;;;;;19.6;100.0;100590;;;;
2022/06/19 00:25:00;;;;;;;0.4;0.4;;;;;;;19.6;100.0;100590;;;;
2022/06/19 00:26:00;;;;;;;0.4;0.4;;;;;;;19.3;100.0;100590;;;;
2022/06/19 00:27:00;;;;;;;0.4;0.4;;;;;;;19.3;100.0;100590;;;;
2022/06/19 00:28:00;;;;;;;0.2;0.2;;;;;;;19.5;100.0;100590;;;;
2022/06/19 00:29:00;;;;;;;0.2;0.2;;;;;;;19.5;100.0;100590;;;;
2022/06/19 00:30:00;;;;;;;0.2;0.2;;;;;;;19.4;100.0;100590;;;;
2022/06/19 00:31:00;;;;;;;0.2;0.2;;;;;;;19.4;100.0;100590;;;;
2022/06/19 00:32:04;;;;;;;0.2;0.2;;;;;;;19.2;100.0;100580;;;;
2022/06/19 00:33:00;;;;;;;0.2;0.2;;;;;;;19.2;100.0;100580;;;;
2022/06/19 00:34:00;;;;;;;0.2;0.2;;;;;;;19.1;100.0;100570;;;;
2022/06/19 00:35:00;;;;;;;0.2;0.2;;;;;;;19.1;100.0;100570;;;;
2022/06/19 00:36:00;;;;;;;0.2;0.2;;;;;;;19.1;100.0;100570;;;;
2022/06/19 00:37:01;;;;;;;0.2;0.2;;;;;;;19.1;100.0;100570;;;;
2022/06/19 00:38:00;;;;;;;0.2;0.2;;;;;;;19.0;100.0;100580;;;;
2022/06/19 00:39:00;;;;;;;0.2;0.2;;;;;;;19.0;100.0;100580;;;;
2022/06/19 00:40:00;;;;;;;0.2;0.2;;;;;;;19.2;100.0;100600;;;;
2022/06/19 00:41:00;;;;;;;0.2;0.2;;;;;;;19.2;100.0;100600;;;;
2022/06/19 00:42:00;;;;;;;0.2;0.2;;;;;;;18.9;100.0;100610;;;;
2022/06/19 00:43:00;;;;;;;0.2;0.2;;;;;;;18.9;100.0;100610;;;;
2022/06/19 00:44:01;;;;;;;0.2;0.2;;;;;;;19.2;100.0;100610;;;;
2022/06/19 00:45:00;;;;;;;0.2;0.2;;;;;;;19.2;100.0;100610;;;;
2022/06/19 00:46:04;;;;;;;0.2;0.2;;;;;;;19.3;100.0;100610;;;;
2022/06/19 00:47:10;;;;;;;0.2;0.2;;;;;;;19.3;100.0;100610;;;;
2022/06/19 00:48:01;;;;;;;0.3;0.3;;;;;;;19.6;100.0;100610;;;;
2022/06/19 00:49:00;;;;;;;0.3;0.3;;;;;;;19.6;100.0;100610;;;;
2022/06/19 00:50:06;;;;;;;0.3;0.3;;;;;;;19.5;100.0;100600;;;;
2022/06/19 00:51:04;;;;;;;0.3;0.3;;;;;;;19.5;100.0;100600;;;;
2022/06/19 00:52:10;;;;;;;0.3;0.3;;;;;;;19.6;100.0;100600;;;;
2022/06/19 00:53:01;;;;;;;0.3;0.3;;;;;;;19.6;100.0;100600;;;;
2022/06/19 00:54:00;;;;;;;0.3;0.3;;;;;;;19.8;100.0;100600;;;;
2022/06/19 00:55:02;;;;;;;0.3;0.3;;;;;;;19.8;100.0;100600;;;;
2022/06/19 00:56:00;;;;;;;0.3;0.3;;;;;;;19.7;100.0;100610;;;;
2022/06/19 00:57:00;;;;;;;0.3;0.3;;;;;;;19.7;100.0;100610;;;;
2022/06/19 00:58:03;;;;;;;0.3;0.3;;;;;;;19.7;100.0;100620;;;;
2022/06/19 00:59:02;;;;;;;0.3;0.3;;;;;;;19.7;100.0;100620;;;;
2022/06/19 01:00:03;;;;;;;0.3;0.3;;;;;;;19.9;100.0;100620;;;;
2022/06/19 01:01:01;;;;;;;0.3;0.3;;;;;;;19.9;100.0;100620;;;;
2022/06/19 01:02:02;;;;;;;0.3;0.3;;;;;;;19.7;100.0;100610;;;;
2022/06/19 01:03:05;;;;;;;0.3;0.3;;;;;;;19.7;100.0;100610;;;;
2022/06/19 01:04:10;;;;;;;0.3;0.3;;;;;;;19.7;100.0;100610;;;;
2022/06/19 01:05:00;;;;;;;0.3;0.3;;;;;;;19.7;100.0;100610;;;;
2022/06/19 01:06:00;;;;;;;0.3;0.3;;;;;;;19.5;100.0;100600;;;;
2022/06/19 01:07:00;;;;;;;0.3;0.3;;;;;;;19.5;100.0;100600;;;;
2022/06/19 01:08:01;;;;;;;0.2;0.2;;;;;;;19.6;100.0;100600;;;;
2022/06/19 01:09:00;;;;;;;0.2;0.2;;;;;;;19.6;100.0;100600;;;;
2022/06/19 01:10:00;;;;;;;0.2;0.2;;;;;;;19.6;100.0;100600;;;;
2022/06/19 01:11:00;;;;;;;0.2;0.2;;;;;;;19.6;100.0;100600;;;;
2022/06/19 01:12:01;;;;;;;0.2;0.2;;;;;;;19.7;100.0;100600;;;;
2022/06/19 01:13:00;;;;;;;0.2;0.2;;;;;;;19.7;100.0;100600;;;;
2022/06/19 01:14:00;;;;;;;0.2;0.2;;;;;;;19.8;100.0;100590;;;;
2022/06/19 01:15:02;;;;;;;0.2;0.2;;;;;;;19.8;100.0;100590;;;;
2022/06/19 01:16:01;;;;;;;0.2;0.2;;;;;;;19.5;100.0;100580;;;;
2022/06/19 01:17:01;;;;;;;0.2;0.2;;;;;;;19.5;100.0;100580;;;;
2022/06/19 01:18:03;;;;;;;0.2;0.2;;;;;;;19.3;100.0;100590;;;;
2022/06/19 01:19:00;;;;;;;0.2;0.2;;;;;;;19.3;100.0;100590;;;;
2022/06/19 01:20:01;;;;;;;0.2;0.2;;;;;;;19.5;100.0;100590;;;;
2022/06/19 01:21:06;;;;;;;0.2;0.2;;;;;;;19.5;100.0;100590;;;;
2022/06/19 01:22:05;;;;;;;0.2;0.2;;;;;;;19.6;100.0;100590;;;;
2022/06/19 01:23:05;;;;;;;0.2;0.2;;;;;;;19.6;100.0;100590;;;;
2022/06/19 01:24:01;;;;;;;0.2;0.2;;;;;;;19.4;100.0;100600;;;;
2022/06/19 01:25:10;;;;;;;0.2;0.2;;;;;;;19.4;100.0;100600;;;;
2022/06/19 01:26:00;;;;;;;0.2;0.2;;;;;;;19.5;100.0;100650;;;;
2022/06/19 01:27:01;;;;;;;0.2;0.2;;;;;;;19.5;100.0;100650;;;;
2022/06/19 01:29:01;;;;;;;0.2;0.2;;;;;;;19.6;100.0;100740;;;;
2022/06/19 01:30:00;;;;;;;0.2;0.2;;;;;;;19.3;100.0;100780;;;;
2022/06/19 01:31:01;;;;;;;0.2;0.2;;;;;;;19.3;100.0;100780;;;;
2022/06/19 01:32:02;;;;;;;0.2;0.2;;;;;;;19.0;100.0;100760;;;;
2022/06/19 01:33:02;;;;;;;0.2;0.2;;;;;;;19.0;100.0;100760;;;;
2022/06/19 01:34:26;;;;;;;0.2;0.2;;;;;;;19.2;100.0;100670;;;;
2022/06/19 01:35:00;;;;;;;0.2;0.2;;;;;;;19.2;100.0;100670;;;;
2022/06/19 01:36:01;;;;;;;0.2;0.2;;;;;;;18.9;100.0;100660;;;;
2022/06/19 01:37:03;;;;;;;0.2;0.2;;;;;;;18.9;100.0;100660;;;;
2022/06/19 01:38:03;;;;;;;0.2;0.2;;;;;;;18.8;100.0;100680;;;;
2022/06/19 01:39:00;;;;;;;0.2;0.2;;;;;;;18.8;100.0;100680;;;;
2022/06/19 01:40:03;;;;;;;0.2;0.2;;;;;;;19.1;100.0;100720;;;;
2022/06/19 01:41:04;;;;;;;0.2;0.2;;;;;;;19.1;100.0;100720;;;;
2022/06/19 01:42:02;;;;;;;0.2;0.2;;;;;;;19.1;100.0;100720;;;;
2022/06/19 01:43:00;;;;;;;0.2;0.2;;;;;;;19.1;100.0;100720;;;;
2022/06/19 01:44:00;;;;;;;0.2;0.2;;;;;;;18.9;100.0;100680;;;;
2022/06/19 01:45:00;;;;;;;0.2;0.2;;;;;;;18.9;100.0;100680;;;;
2022/06/19 01:46:00;;;;;;;0.2;0.2;;;;;;;18.8;100.0;100660;;;;
2022/06/19 01:47:00;;;;;;;0.2;0.2;;;;;;;18.8;100.0;100660;;;;
2022/06/19 01:48:01;;;;;;;0.4;0.4;;;;;;;19.0;100.0;100660;;;;
2022/06/19 01:49:01;;;;;;;0.4;0.4;;;;;;;19.0;100.0;100660;;;;
2022/06/19 01:50:00;;;;;;;0.4;0.4;;;;;;;18.8;100.0;100680;;;;
2022/06/19 01:51:01;;;;;;;0.4;0.4;;;;;;;18.8;100.0;100680;;;;
2022/06/19 01:52:01;;;;;;;0.4;0.4;;;;;;;18.9;100.0;100700;;;;
2022/06/19 01:53:04;;;;;;;0.4;0.4;;;;;;;18.9;100.0;100700;;;;
2022/06/19 01:54:04;;;;;;;0.4;0.4;;;;;;;19.0;100.0;100700;;;;
2022/06/19 01:55:08;;;;;;;0.4;0.4;;;;;;;19.0;100.0;100700;;;;
2022/06/19 01:56:00;;;;;;;0.4;0.4;;;;;;;19.0;100.0;100690;;;;
2022/06/19 01:57:00;;;;;;;0.4;0.4;;;;;;;19.0;100.0;100690;;;;
2022/06/19 01:58:01;;;;;;;0.4;0.4;;;;;;;18.9;100.0;100700;;;;
2022/06/19 01:59:03;;;;;;;0.4;0.4;;;;;;;18.9;100.0;100700;;;;
2022/06/19 02:00:01;;;;;;;0.4;0.4;;;;;;;19.0;100.0;100700;;;;
2022/06/19 02:01:03;;;;;;;0.4;0.4;;;;;;;19.0;100.0;100700;;;;
2022/06/19 02:02:01;;;;;;;0.4;0.4;;;;;;;19.0;100.0;100690;;;;
2022/06/19 02:03:10;;;;;;;0.4;0.4;;;;;;;19.0;100.0;100690;;;;
2022/06/19 02:04:00;;;;;;;0.4;0.4;;;;;;;18.8;100.0;100690;;;;
2022/06/19 02:05:00;;;;;;;0.4;0.4;;;;;;;18.8;100.0;100690;;;;
2022/06/19 02:06:00;;;;;;;0.4;0.4;;;;;;;18.7;100.0;100700;;;;
2022/06/19 02:07:02;;;;;;;0.4;0.4;;;;;;;18.7;100.0;100700;;;;
2022/06/19 02:08:00;;;;;;;0.2;0.2;;;;;;;18.8;100.0;100700;;;;
2022/06/19 02:09:01;;;;;;;0.2;0.2;;;;;;;18.8;100.0;100700;;;;
2022/06/19 02:10:01;;;;;;;0.2;0.2;;;;;;;18.6;100.0;100700;;;;
2022/06/19 02:11:01;;;;;;;0.2;0.2;;;;;;;18.6;100.0;100700;;;;
2022/06/19 02:12:00;;;;;;;0.2;0.2;;;;;;;18.5;100.0;100700;;;;
2022/06/19 02:13:01;;;;;;;0.2;0.2;;;;;;;18.5;100.0;100700;;;;
2022/06/19 02:14:01;;;;;;;0.2;0.2;;;;;;;18.5;100.0;100710;;;;
2022/06/19 02:15:01;;;;;;;0.2;0.2;;;;;;;18.5;100.0;100710;;;;
2022/06/19 02:16:02;;;;;;;0.2;0.2;;;;;;;18.6;100.0;100710;;;;
2022/06/19 02:17:04;;;;;;;0.2;0.2;;;;;;;18.6;100.0;100710;;;;
2022/06/19 02:18:01;;;;;;;0.2;0.2;;;;;;;18.3;100.0;100710;;;;
2022/06/19 02:19:00;;;;;;;0.2;0.2;;;;;;;18.3;100.0;100710;;;;
2022/06/19 02:20:00;;;;;;;0.2;0.2;;;;;;;18.6;100.0;100710;;;;
2022/06/19 02:21:00;;;;;;;0.2;0.2;;;;;;;18.6;100.0;100710;;;;
2022/06/19 02:22:00;;;;;;;0.2;0.2;;;;;;;18.7;100.0;100710;;;;
2022/06/19 02:23:01;;;;;;;0.2;0.2;;;;;;;18.7;100.0;100710;;;;
2022/06/19 02:24:00;;;;;;;0.2;0.2;;;;;;;18.2;100.0;100720;;;;
2022/06/19 02:25:01;;;;;;;0.2;0.2;;;;;;;18.2;100.0;100720;;;;
2022/06/19 02:26:00;;;;;;;0.2;0.2;;;;;;;18.4;100.0;100710;;;;
2022/06/19 02:27:00;;;;;;;0.2;0.2;;;;;;;18.4;100.0;100710;;;;
2022/06/19 02:28:01;;;;;;;0.4;0.4;;;;;;;18.5;100.0;100710;;;;
2022/06/19 02:29:00;;;;;;;0.4;0.4;;;;;;;18.5;100.0;100710;;;;
2022/06/19 02:30:02;;;;;;;0.4;0.4;;;;;;;18.5;100.0;100700;;;;
2022/06/19 02:31:01;;;;;;;0.4;0.4;;;;;;;18.5;100.0;100700;;;;
2022/06/19 02:32:01;;;;;;;0.4;0.4;;;;;;;18.5;100.0;100710;;;;
2022/06/19 02:33:00;;;;;;;0.4;0.4;;;;;;;18.5;100.0;100710;;;;
2022/06/19 02:34:03;;;;;;;0.4;0.4;;;;;;;18.4;100.0;100710;;;;
2022/06/19 02:35:00;;;;;;;0.4;0.4;;;;;;;18.4;100.0;100710;;;;
2022/06/19 02:36:00;;;;;;;0.4;0.4;;;;;;;18.5;100.0;100710;;;;
2022/06/19 02:37:01;;;;;;;0.4;0.4;;;;;;;18.5;100.0;100710;;;;
2022/06/19 02:38:05;;;;;;;0.4;0.4;;;;;;;18.3;100.0;100710;;;;
2022/06/19 02:39:08;;;;;;;0.4;0.4;;;;;;;18.3;100.0;100710;;;;
2022/06/19 02:40:01;;;;;;;0.4;0.4;;;;;;;18.2;97.9;100710;;;;
2022/06/19 02:41:05;;;;;;;0.4;0.4;;;;;;;18.2;97.9;100710;;;;
2022/06/19 02:42:03;;;;;;;0.4;0.4;;;;;;;18.0;100.0;100720;;;;
2022/06/19 02:43:00;;;;;;;0.4;0.4;;;;;;;18.0;100.0;100720;;;;
2022/06/19 02:44:00;;;;;;;0.4;0.4;;;;;;;18.3;99.3;100730;;;;
2022/06/19 02:45:02;;;;;;;0.4;0.4;;;;;;;18.3;99.3;100730;;;;
2022/06/19 02:46:02;;;;;;;0.4;0.4;;;;;;;18.3;100.0;100750;;;;
2022/06/19 02:47:00;;;;;;;0.4;0.4;;;;;;;18.3;100.0;100750;;;;
2022/06/19 02:48:00;;;;;;;0.3;0.3;;;;;;;18.4;98.5;100740;;;;
2022/06/19 02:49:01;;;;;;;0.3;0.3;;;;;;;18.4;98.5;100740;;;;
2022/06/19 02:50:00;;;;;;;0.3;0.3;;;;;;;18.4;96.3;100730;;;;
2022/06/19 02:51:01;;;;;;;0.3;0.3;;;;;;;18.4;96.3;100730;;;;
2022/06/19 02:52:01;;;;;;;0.3;0.3;;;;;;;18.4;99.1;100730;;;;
2022/06/19 02:53:00;;;;;;;0.3;0.3;;;;;;;18.4;99.1;100730;;;;
2022/06/19 02:54:00;;;;;;;0.3;0.3;;;;;;;18.0;97.8;100730;;;;
2022/06/19 02:55:00;;;;;;;0.3;0.3;;;;;;;18.0;97.8;100730;;;;
2022/06/19 02:56:00;;;;;;;0.3;0.3;;;;;;;18.0;100.0;100710;;;;
2022/06/19 02:57:00;;;;;;;0.3;0.3;;;;;;;18.0;100.0;100710;;;;
2022/06/19 02:58:00;;;;;;;0.3;0.3;;;;;;;18.0;98.7;100710;;;;
2022/06/19 02:59:00;;;;;;;0.3;0.3;;;;;;;18.0;98.7;100710;;;;
2022/06/19 03:00:00;;;;;;;0.3;0.3;;;;;;;18.2;100.0;100700;;;;
2022/06/19 03:01:00;;;;;;;0.3;0.3;;;;;;;18.2;100.0;100700;;;;
2022/06/19 03:02:00;;;;;;;0.3;0.3;;;;;;;17.8;99.1;100690;;;;
2022/06/19 03:03:04;;;;;;;0.3;0.3;;;;;;;17.8;99.1;100690;;;;
2022/06/19 03:04:00;;;;;;;0.3;0.3;;;;;;;17.7;100.0;100700;;;;
2022/06/19 03:05:01;;;;;;;0.3;0.3;;;;;;;17.7;100.0;100700;;;;
2022/06/19 03:06:00;;;;;;;0.3;0.3;;;;;;;18.0;100.0;100710;;;;
2022/06/19 03:07:00;;;;;;;0.3;0.3;;;;;;;18.0;100.0;100710;;;;
2022/06/19 03:08:00;;;;;;;0.8;0.8;;;;;;;17.9;100.0;100730;;;;
2022/06/19 03:09:00;;;;;;;0.8;0.8;;;;;;;17.9;100.0;100730;;;;
2022/06/19 03:10:00;;;;;;;0.8;0.8;;;;;;;18.0;100.0;100760;;;;
2022/06/19 03:11:03;;;;;;;0.8;0.8;;;;;;;18.0;100.0;100760;;;;
2022/06/19 03:12:00;;;;;;;0.8;0.8;;;;;;;18.1;100.0;100810;;;;
2022/06/19 03:13:00;;;;;;;0.8;0.8;;;;;;;18.1;100.0;100810;;;;
2022/06/19 03:14:00;;;;;;;0.8;0.8;;;;;;;17.8;100.0;100840;;;;
2022/06/19 03:15:00;;;;;;;0.8;0.8;;;;;;;17.8;100.0;100840;;;;
2022/06/19 03:16:02;;;;;;;0.8;0.8;;;;;;;17.8;100.0;100840;;;;
2022/06/19 03:17:00;;;;;;;0.8;0.8;;;;;;;17.8;100.0;100840;;;;
2022/06/19 03:18:00;;;;;;;0.8;0.8;;;;;;;17.8;100.0;100810;;;;
2022/06/19 03:19:00;;;;;;;0.8;0.8;;;;;;;17.8;100.0;100810;;;;
2022/06/19 03:20:00;;;;;;;0.8;0.8;;;;;;;17.7;100.0;100790;;;;
2022/06/19 03:21:00;;;;;;;0.8;0.8;;;;;;;17.7;100.0;100790;;;;
2022/06/19 03:22:00;;;;;;;0.8;0.8;;;;;;;18.0;100.0;100780;;;;
2022/06/19 03:23:00;;;;;;;0.8;0.8;;;;;;;18.0;100.0;100780;;;;
2022/06/19 03:24:00;;;;;;;0.8;0.8;;;;;;;18.0;100.0;100760;;;;
2022/06/19 03:25:00;;;;;;;0.8;0.8;;;;;;;18.0;100.0;100760;;;;
2022/06/19 03:26:00;;;;;;;0.8;0.8;;;;;;;17.8;100.0;100750;;;;
2022/06/19 03:27:00;;;;;;;0.8;0.8;;;;;;;17.8;100.0;100750;;;;
2022/06/19 03:28:00;;;;;;;0.3;0.3;;;;;;;17.8;100.0;100750;;;;
2022/06/19 03:29:00;;;;;;;0.3;0.3;;;;;;;17.8;100.0;100750;;;;
2022/06/19 03:30:00;;;;;;;0.3;0.3;;;;;;;17.7;100.0;100750;;;;
2022/06/19 03:31:00;;;;;;;0.3;0.3;;;;;;;17.7;100.0;100750;;;;
2022/06/19 03:32:00;;;;;;;0.3;0.3;;;;;;;17.5;100.0;100740;;;;
2022/06/19 03:33:00;;;;;;;0.3;0.3;;;;;;;17.5;100.0;100740;;;;
2022/06/19 03:34:00;;;;;;;0.3;0.3;;;;;;;17.5;100.0;100730;;;;
2022/06/19 03:35:00;;;;;;;0.3;0.3;;;;;;;17.5;100.0;100730;;;;
2022/06/19 03:36:00;;;;;;;0.3;0.3;;;;;;;17.5;100.0;100720;;;;
2022/06/19 03:37:00;;;;;;;0.3;0.3;;;;;;;17.5;100.0;100720;;;;
2022/06/19 03:38:00;;;;;;;0.3;0.3;;;;;;;17.5;100.0;100720;;;;
2022/06/19 03:39:00;;;;;;;0.3;0.3;;;;;;;17.5;100.0;100720;;;;
2022/06/19 03:40:00;;;;;;;0.3;0.3;;;;;;;17.4;100.0;100730;;;;
2022/06/19 03:41:00;;;;;;;0.3;0.3;;;;;;;17.4;100.0;100730;;;;
2022/06/19 03:42:00;;;;;;;0.3;0.3;;;;;;;17.4;100.0;100750;;;;
2022/06/19 03:43:00;;;;;;;0.3;0.3;;;;;;;17.4;100.0;100750;;;;
2022/06/19 03:44:00;;;;;;;0.3;0.3;;;;;;;17.4;100.0;100750;;;;
2022/06/19 03:45:00;;;;;;;0.3;0.3;;;;;;;17.4;100.0;100750;;;;
2022/06/19 03:46:02;;;;;;;0.3;0.3;;;;;;;17.3;100.0;100730;;;;
2022/06/19 03:47:00;;;;;;;0.3;0.3;;;;;;;17.3;100.0;100730;;;;
2022/06/19 03:48:00;;;;;;;0.4;0.4;;;;;;;17.1;100.0;100710;;;;
2022/06/19 03:49:00;;;;;;;0.4;0.4;;;;;;;17.1;100.0;100710;;;;
2022/06/19 03:50:01;;;;;;;0.4;0.4;;;;;;;17.2;100.0;100710;;;;
2022/06/19 03:51:00;;;;;;;0.4;0.4;;;;;;;17.2;100.0;100710;;;;
2022/06/19 03:52:00;;;;;;;0.4;0.4;;;;;;;17.0;100.0;100670;;;;
2022/06/19 03:53:00;;;;;;;0.4;0.4;;;;;;;17.0;100.0;100670;;;;
2022/06/19 03:54:00;;;;;;;0.4;0.4;;;;;;;17.2;100.0;100670;;;;
2022/06/19 03:55:00;;;;;;;0.4;0.4;;;;;;;17.2;100.0;100670;;;;
2022/06/19 03:56:00;;;;;;;0.4;0.4;;;;;;;17.1;100.0;100670;;;;
2022/06/19 03:57:00;;;;;;;0.4;0.4;;;;;;;17.1;100.0;100670;;;;
2022/06/19 03:58:00;;;;;;;0.4;0.4;;;;;;;16.8;100.0;100680;;;;
2022/06/19 03:59:00;;;;;;;0.4;0.4;;;;;;;16.8;100.0;100680;;;;
2022/06/19 04:00:00;;;;;;;0.4;0.4;;;;;;;16.8;100.0;100670;;;;
2022/06/19 04:01:00;;;;;;;0.4;0.4;;;;;;;16.8;100.0;100670;;;;
2022/06/19 04:02:00;;;;;;;0.4;0.4;;;;;;;16.9;100.0;100690;;;;
2022/06/19 04:03:00;;;;;;;0.4;0.4;;;;;;;16.9;100.0;100690;;;;
2022/06/19 04:04:00;;;;;;;0.4;0.4;;;;;;;17.1;100.0;100740;;;;
2022/06/19 04:05:00;;;;;;;0.4;0.4;;;;;;;17.1;100.0;100740;;;;
2022/06/19 04:06:00;;;;;;;0.4;0.4;;;;;;;17.2;100.0;100790;;;;
2022/06/19 04:07:00;;;;;;;0.4;0.4;;;;;;;17.2;100.0;100790;;;;
2022/06/19 04:08:00;;;;;;;0.2;0.2;;;;;;;17.2;100.0;100800;;;;
2022/06/19 04:09:00;;;;;;;0.2;0.2;;;;;;;17.2;100.0;100800;;;;
2022/06/19 04:10:02;;;;;;;0.2;0.2;;;;;;;17.1;100.0;100740;;;;
2022/06/19 04:11:00;;;;;;;0.2;0.2;;;;;;;17.1;100.0;100740;;;;
2022/06/19 04:12:00;;;;;;;0.2;0.2;;;;;;;17.0;100.0;100720;;;;
2022/06/19 04:13:00;;;;;;;0.2;0.2;;;;;;;17.0;100.0;100720;;;;
2022/06/19 04:14:00;;;;;;;0.2;0.2;;;;;;;17.1;100.0;100740;;;;
2022/06/19 04:15:00;;;;;;;0.2;0.2;;;;;;;17.1;100.0;100740;;;;
2022/06/19 04:16:01;;;;;;;0.2;0.2;;;;;;;16.9;100.0;100720;;;;
2022/06/19 04:17:00;;;;;;;0.2;0.2;;;;;;;16.9;100.0;100720;;;;
2022/06/19 04:18:00;;;;;;;0.2;0.2;;;;;;;16.8;100.0;100680;;;;
2022/06/19 04:19:02;;;;;;;0.2;0.2;;;;;;;16.8;100.0;100680;;;;
2022/06/19 04:20:00;;;;;;;0.2;0.2;;;;;;;16.6;100.0;100670;;;;
2022/06/19 04:21:00;;;;;;;0.2;0.2;;;;;;;16.6;100.0;100670;;;;
2022/06/19 04:22:00;;;;;;;0.2;0.2;;;;;;;16.3;100.0;100660;;;;
2022/06/19 04:23:00;;;;;;;0.2;0.2;;;;;;;16.3;100.0;100660;;;;
2022/06/19 04:24:03;;;;;;;0.2;0.2;;;;;;;16.4;100.0;100650;;;;
2022/06/19 04:25:00;;;;;;;0.2;0.2;;;;;;;16.4;100.0;100650;;;;
2022/06/19 04:26:00;;;;;;;0.2;0.2;;;;;;;16.3;100.0;100620;;;;
2022/06/19 04:27:03;;;;;;;0.2;0.2;;;;;;;16.3;100.0;100620;;;;
2022/06/19 04:28:00;;;;;;;0.5;0.5;;;;;;;16.2;100.0;100610;;;;
2022/06/19 04:29:00;;;;;;;0.5;0.5;;;;;;;16.2;100.0;100610;;;;
2022/06/19 04:30:01;;;;;;;0.5;0.5;;;;;;;16.1;100.0;100590;;;;
2022/06/19 04:31:00;;;;;;;0.5;0.5;;;;;;;16.1;100.0;100590;;;;
2022/06/19 04:32:00;;;;;;;0.5;0.5;;;;;;;16.0;100.0;100580;;;;
2022/06/19 04:33:00;;;;;;;0.5;0.5;;;;;;;16.0;100.0;100580;;;;
2022/06/19 04:34:00;;;;;;;0.5;0.5;;;;;;;16.0;100.0;100560;;;;
2022/06/19 04:35:00;;;;;;;0.5;0.5;;;;;;;16.0;100.0;100560;;;;
2022/06/19 04:36:00;;;;;;;0.5;0.5;;;;;;;16.0;100.0;100550;;;;
2022/06/19 04:37:00;;;;;;;0.5;0.5;;;;;;;16.0;100.0;100550;;;;
2022/06/19 04:38:00;;;;;;;0.5;0.5;;;;;;;16.2;100.0;100540;;;;
2022/06/19 04:39:00;;;;;;;0.5;0.5;;;;;;;16.2;100.0;100540;;;;
2022/06/19 04:40:00;;;;;;;0.5;0.5;;;;;;;15.9;100.0;100530;;;;
2022/06/19 04:41:00;;;;;;;0.5;0.5;;;;;;;15.9;100.0;100530;;;;
2022/06/19 04:42:00;;;;;;;0.5;0.5;;;;;;;16.1;100.0;100530;;;;
2022/06/19 04:43:00;;;;;;;0.5;0.5;;;;;;;16.1;100.0;100530;;;;
2022/06/19 04:44:00;;;;;;;0.5;0.5;;;;;;;16.0;100.0;100530;;;;
2022/06/19 04:45:00;;;;;;;0.5;0.5;;;;;;;16.0;100.0;100530;;;;
2022/06/19 04:46:00;;;;;;;0.5;0.5;;;;;;;15.9;100.0;100540;;;;
2022/06/19 04:47:00;;;;;;;0.5;0.5;;;;;;;15.9;100.0;100540;;;;
2022/06/19 04:48:00;;;;;;;0.6;0.6;;;;;;;16.0;100.0;100550;;;;
2022/06/19 04:49:00;;;;;;;0.6;0.6;;;;;;;16.0;100.0;100550;;;;
2022/06/19 04:50:00;;;;;;;0.6;0.6;;;;;;;16.1;100.0;100530;;;;
2022/06/19 04:51:00;;;;;;;0.6;0.6;;;;;;;16.1;100.0;100530;;;;
2022/06/19 04:52:00;;;;;;;0.6;0.6;;;;;;;16.3;100.0;100530;;;;
2022/06/19 04:53:00;;;;;;;0.6;0.6;;;;;;;16.3;100.0;100530;;;;
2022/06/19 04:54:00;;;;;;;0.6;0.6;;;;;;;16.2;100.0;100530;;;;
2022/06/19 04:55:00;;;;;;;0.6;0.6;;;;;;;16.2;100.0;100530;;;;
2022/06/19 04:56:00;;;;;;;0.6;0.6;;;;;;;16.1;100.0;100530;;;;
2022/06/19 04:57:00;;;;;;;0.6;0.6;;;;;;;16.1;100.0;100530;;;;
2022/06/19 04:58:01;;;;;;;0.6;0.6;;;;;;;16.2;100.0;100530;;;;
2022/06/19 04:59:00;;;;;;;0.6;0.6;;;;;;;16.2;100.0;100530;;;;
2022/06/19 05:00:00;;;;;;;0.6;0.6;;;;;;;16.3;100.0;100520;;;;
2022/06/19 05:01:03;;;;;;;0.6;0.6;;;;;;;16.3;100.0;100520;;;;
2022/06/19 05:02:00;;;;;;;0.6;0.6;;;;;;;16.4;100.0;100510;;;;
2022/06/19 05:03:00;;;;;;;0.6;0.6;;;;;;;16.4;100.0;100510;;;;
2022/06/19 05:04:01;;;;;;;0.6;0.6;;;;;;;16.3;100.0;100490;;;;
2022/06/19 05:05:00;;;;;;;0.6;0.6;;;;;;;16.3;100.0;100490;;;;
2022/06/19 05:06:00;;;;;;;0.6;0.6;;;;;;;16.4;100.0;100480;;;;
2022/06/19 05:07:00;;;;;;;0.6;0.6;;;;;;;16.4;100.0;100480;;;;
2022/06/19 05:08:00;;;;;;;0.3;0.3;;;;;;;16.6;100.0;100480;;;;
2022/06/19 05:09:00;;;;;;;0.3;0.3;;;;;;;16.6;100.0;100480;;;;
2022/06/19 05:10:00;;;;;;;0.3;0.3;;;;;;;16.5;100.0;100490;;;;
2022/06/19 05:11:00;;;;;;;0.3;0.3;;;;;;;16.5;100.0;100490;;;;
2022/06/19 05:12:00;;;;;;;0.3;0.3;;;;;;;16.5;100.0;100500;;;;
2022/06/19 05:13:00;;;;;;;0.3;0.3;;;;;;;16.5;100.0;100500;;;;
2022/06/19 05:14:00;;;;;;;0.3;0.3;;;;;;;16.5;100.0;100520;;;;
2022/06/19 05:15:00;;;;;;;0.3;0.3;;;;;;;16.5;100.0;100520;;;;
2022/06/19 05:16:02;;;;;;;0.3;0.3;;;;;;;16.6;100.0;100520;;;;
2022/06/19 05:17:01;;;;;;;0.3;0.3;;;;;;;16.6;100.0;100520;;;;
2022/06/19 05:18:01;;;;;;;0.3;0.3;;;;;;;16.6;100.0;100520;;;;
2022/06/19 05:19:02;;;;;;;0.3;0.3;;;;;;;16.6;100.0;100520;;;;
2022/06/19 05:20:00;;;;;;;0.3;0.3;;;;;;;16.6;100.0;100540;;;;
2022/06/19 05:21:01;;;;;;;0.3;0.3;;;;;;;16.6;100.0;100540;;;;
2022/06/19 05:22:00;;;;;;;0.3;0.3;;;;;;;16.8;100.0;100530;;;;
2022/06/19 05:23:00;;;;;;;0.3;0.3;;;;;;;16.8;100.0;100530;;;;
2022/06/19 05:24:00;;;;;;;0.3;0.3;;;;;;;16.9;100.0;100520;;;;
2022/06/19 05:25:00;;;;;;;0.3;0.3;;;;;;;16.9;100.0;100520;;;;
2022/06/19 05:26:02;;;;;;;0.3;0.3;;;;;;;16.8;100.0;100530;;;;
2022/06/19 05:27:01;;;;;;;0.3;0.3;;;;;;;16.8;100.0;100530;;;;
2022/06/19 05:28:00;;;;;;;0.3;0.3;;;;;;;16.8;100.0;100550;;;;
2022/06/19 05:29:01;;;;;;;0.3;0.3;;;;;;;16.8;100.0;100550;;;;
2022/06/19 05:30:00;;;;;;;0.3;0.3;;;;;;;17.0;100.0;100600;;;;
2022/06/19 05:31:00;;;;;;;0.3;0.3;;;;;;;17.0;100.0;100600;;;;
2022/06/19 05:32:00;;;;;;;0.3;0.3;;;;;;;17.4;100.0;100610;;;;
2022/06/19 05:33:00;;;;;;;0.3;0.3;;;;;;;17.4;100.0;100610;;;;
2022/06/19 05:34:08;;;;;;;0.3;0.3;;;;;;;17.3;100.0;100600;;;;
2022/06/19 05:35:00;;;;;;;0.3;0.3;;;;;;;17.3;100.0;100600;;;;
2022/06/19 05:36:01;;;;;;;0.3;0.3;;;;;;;17.1;100.0;100590;;;;
2022/06/19 05:37:00;;;;;;;0.3;0.3;;;;;;;17.1;100.0;100590;;;;
2022/06/19 05:38:00;;;;;;;0.3;0.3;;;;;;;17.1;100.0;100600;;;;
2022/06/19 05:39:00;;;;;;;0.3;0.3;;;;;;;17.1;100.0;100600;;;;
2022/06/19 05:40:00;;;;;;;0.3;0.3;;;;;;;17.1;100.0;100610;;;;
2022/06/19 05:41:00;;;;;;;0.3;0.3;;;;;;;17.1;100.0;100610;;;;
2022/06/19 05:42:02;;;;;;;0.3;0.3;;;;;;;17.2;100.0;100620;;;;
2022/06/19 05:43:00;;;;;;;0.3;0.3;;;;;;;17.2;100.0;100620;;;;
2022/06/19 05:44:00;;;;;;;0.3;0.3;;;;;;;17.1;100.0;100640;;;;
2022/06/19 05:45:00;;;;;;;0.3;0.3;;;;;;;17.1;100.0;100640;;;;
2022/06/19 05:46:03;;;;;;;0.3;0.3;;;;;;;17.5;100.0;100660;;;;
2022/06/19 05:47:00;;;;;;;0.3;0.3;;;;;;;17.5;100.0;100660;;;;
2022/06/19 05:48:05;;;;;;;0.3;0.3;;;;;;;17.9;100.0;100680;;;;
2022/06/19 05:49:00;;;;;;;0.3;0.3;;;;;;;17.9;100.0;100680;;;;
2022/06/19 05:50:00;;;;;;;0.3;0.3;;;;;;;18.0;100.0;100700;;;;
2022/06/19 05:51:02;;;;;;;0.3;0.3;;;;;;;18.0;100.0;100700;;;;
2022/06/19 05:52:00;;;;;;;0.3;0.3;;;;;;;18.2;100.0;100700;;;;
2022/06/19 05:53:01;;;;;;;0.3;0.3;;;;;;;18.2;100.0;100700;;;;
2022/06/19 05:54:00;;;;;;;0.3;0.3;;;;;;;18.4;98.9;100720;;;;
2022/06/19 05:55:00;;;;;;;0.3;0.3;;;;;;;18.4;98.9;100720;;;;
2022/06/19 05:56:00;;;;;;;0.3;0.3;;;;;;;18.5;98.9;100710;;;;
2022/06/19 05:57:00;;;;;;;0.3;0.3;;;;;;;18.5;98.9;100710;;;;
2022/06/19 05:58:00;;;;;;;0.3;0.3;;;;;;;19.0;98.0;100700;;;;
2022/06/19 05:59:00;;;;;;;0.3;0.3;;;;;;;19.0;98.0;100700;;;;
2022/06/19 06:00:00;;;;;;;0.3;0.3;;;;;;;19.3;95.9;100690;;;;
2022/06/19 06:01:01;;;;;;;0.3;0.3;;;;;;;19.3;95.9;100690;;;;
2022/06/19 06:02:00;;;;;;;0.3;0.3;;;;;;;19.2;93.0;100690;;;;
2022/06/19 06:03:00;;;;;;;0.3;0.3;;;;;;;19.2;93.0;100690;;;;
2022/06/19 06:04:00;;;;;;;0.3;0.3;;;;;;;19.6;92.7;100700;;;;
2022/06/19 06:05:00;;;;;;;0.3;0.3;;;;;;;19.6;92.7;100700;;;;
2022/06/19 06:06:01;;;;;;;0.3;0.3;;;;;;;19.7;90.6;100710;;;;
2022/06/19 06:07:00;;;;;;;0.2;0.2;;;;;;;19.7;90.6;100710;;;;
2022/06/19 06:08:00;;;;;;;0.2;0.2;;;;;;;19.7;88.8;100710;;;;
2022/06/19 06:09:00;;;;;;;0.2;0.2;;;;;;;19.7;88.8;100710;;;;
2022/06/19 06:10:00;;;;;;;0.2;0.2;;;;;;;19.7;88.4;100720;;;;
2022/06/19 06:11:00;;;;;;;0.2;0.2;;;;;;;19.7;88.4;100720;;;;
2022/06/19 06:12:00;;;;;;;0.2;0.2;;;;;;;19.9;89.0;100720;;;;
2022/06/19 06:13:00;;;;;;;0.2;0.2;;;;;;;19.9;89.0;100720;;;;
2022/06/19 06:14:00;;;;;;;0.2;0.2;;;;;;;20.0;87.0;100740;;;;
2022/06/19 06:15:00;;;;;;;0.2;0.2;;;;;;;20.0;87.0;100740;;;;
2022/06/19 06:16:00;;;;;;;0.2;0.2;;;;;;;20.1;86.6;100760;;;;
2022/06/19 06:17:00;;;;;;;0.2;0.2;;;;;;;20.1;86.6;100760;;;;
2022/06/19 06:18:01;;;;;;;0.2;0.2;;;;;;;20.0;86.3;100770;;;;
2022/06/19 06:19:00;;;;;;;0.2;0.2;;;;;;;20.0;86.3;100770;;;;
2022/06/19 06:20:00;;;;;;;0.2;0.2;;;;;;;19.8;86.5;100770;;;;
2022/06/19 06:21:01;;;;;;;0.2;0.2;;;;;;;19.8;86.5;100770;;;;
2022/06/19 06:22:02;;;;;;;0.2;0.2;;;;;;;19.6;85.6;100780;;;;
2022/06/19 06:23:00;;;;;;;0.2;0.2;;;;;;;19.6;85.6;100780;;;;
2022/06/19 06:24:00;;;;;;;0.2;0.2;;;;;;;19.6;87.1;100790;;;;